Terminal Aerodrome Forecast
Issued by NWS

Home | Current Version | Previous Version | Text Only | Print | Product List | Glossary Off
Versions: 1 2 3 4 5 6 7 8 9 10 11 12 13 14

000
FTUS43 KMPX 022336
TAFRWF
TAF
KRWF 022336Z 0300/0324 19009KT P6SM SCT080
     FM030400 17010KT P6SM BKN080
     FM030700 17008KT P6SM VCSH BKN060
     FM031600 29007KT P6SM BKN050
     FM032100 34011G17KT P6SM BKN060=

USA.gov is the U.S. government's official web portal to all federal, state and local government web resources and services.